createdAt,value
2023-04-23T00:00:38.894Z,2425.00
2023-04-23T00:01:38.976Z,2436.00
2023-04-23T00:02:38.962Z,2426.00
2023-04-23T00:03:39.177Z,2411.00
2023-04-23T00:04:39.171Z,2367.00
2023-04-23T00:05:38.937Z,2289.00
2023-04-23T00:06:38.927Z,2246.00
2023-04-23T00:07:38.929Z,2273.00
2023-04-23T00:08:38.947Z,2329.00
2023-04-23T00:09:38.959Z,2377.00
2023-04-23T00:10:38.972Z,2445.00
2023-04-23T00:11:38.966Z,2492.00
2023-04-23T00:12:38.966Z,2500.00
2023-04-23T00:13:38.985Z,2496.00
2023-04-23T00:14:39.183Z,2501.00
2023-04-23T00:15:38.994Z,2489.00
2023-04-23T00:16:39.117Z,2502.00
2023-04-23T00:17:39.080Z,2496.00
2023-04-23T00:18:39.030Z,2512.00
2023-04-23T00:19:39.033Z,2490.00
2023-04-23T00:20:39.049Z,2539.00
2023-04-23T00:21:39.081Z,2539.00
2023-04-23T00:22:39.104Z,2560.00
2023-04-23T00:23:39.184Z,2541.00
2023-04-23T00:24:39.345Z,2531.00
2023-04-23T00:25:39.109Z,2500.00
2023-04-23T00:26:39.107Z,2503.00
2023-04-23T00:27:39.111Z,2480.00
2023-04-23T00:28:39.124Z,2471.00
2023-04-23T00:29:39.121Z,2413.00
2023-04-23T00:30:39.148Z,2414.00
2023-04-23T00:31:39.188Z,2400.00
2023-04-23T00:32:39.216Z,2393.00
2023-04-23T00:33:39.174Z,2393.00
2023-04-23T00:34:39.515Z,2363.00
2023-04-23T00:35:39.201Z,2339.00
2023-04-23T00:36:39.211Z,2309.00
2023-04-23T00:37:39.222Z,2289.00
2023-04-23T00:38:39.237Z,2292.00
2023-04-23T00:39:39.265Z,2297.00
2023-04-23T00:40:39.264Z,2298.00
2023-04-23T00:41:39.273Z,2332.00
2023-04-23T00:42:39.312Z,2327.00
2023-04-23T00:43:39.309Z,2374.00
2023-04-23T00:44:39.430Z,2395.00
2023-04-23T00:45:39.503Z,2408.00
2023-04-23T00:46:39.336Z,2416.00
2023-04-23T00:47:39.412Z,2435.00
2023-04-23T00:48:39.356Z,2466.00
2023-04-23T00:49:39.377Z,2493.00
2023-04-23T00:50:39.374Z,2553.00
2023-04-23T00:51:39.401Z,2541.00
2023-04-23T00:52:39.438Z,2545.00
2023-04-23T00:53:39.428Z,2534.00
2023-04-23T00:54:39.554Z,2522.00
2023-04-23T00:55:39.453Z,2524.00
2023-04-23T00:56:39.531Z,2508.00
2023-04-23T00:57:39.513Z,2473.00
2023-04-23T00:58:39.527Z,2439.00
2023-04-23T00:59:39.536Z,2453.00
2023-04-23T01:00:39.547Z,2438.00
2023-04-23T01:01:39.580Z,2448.00
2023-04-23T01:02:39.771Z,2438.00
2023-04-23T01:03:39.693Z,2428.00
2023-04-23T01:04:39.675Z,2431.00
2023-04-23T01:05:39.606Z,2411.00
2023-04-23T01:06:39.630Z,2406.00
2023-04-23T01:07:39.722Z,2390.00
2023-04-23T01:08:39.660Z,2382.00
2023-04-23T01:09:39.677Z,2392.00
2023-04-23T01:10:39.684Z,2416.00
2023-04-23T01:11:39.700Z,2409.00
2023-04-23T01:12:39.737Z,2390.00
2023-04-23T01:13:39.733Z,2346.00
2023-04-23T01:14:39.878Z,2303.00
2023-04-23T01:15:39.751Z,2287.00
2023-04-23T01:16:39.811Z,2289.00
2023-04-23T01:17:39.812Z,2279.00
2023-04-23T01:18:39.818Z,2224.00
2023-04-23T01:19:39.822Z,2195.00
2023-04-23T01:20:39.842Z,2188.00
2023-04-23T01:21:39.876Z,2172.00
2023-04-23T01:22:39.902Z,2147.00
2023-04-23T01:23:39.903Z,2126.00
2023-04-23T01:24:40.126Z,2107.00
2023-04-23T01:25:39.963Z,2076.00
2023-04-23T01:26:39.986Z,2053.00
2023-04-23T01:27:40.003Z,2060.00
2023-04-23T01:28:40.052Z,2091.00
2023-04-23T01:29:40.138Z,2152.00
2023-04-23T01:30:40.116Z,2261.00
2023-04-23T01:31:40.081Z,2332.00
2023-04-23T01:32:40.156Z,2424.00
2023-04-23T01:33:40.141Z,2448.00
2023-04-23T01:34:40.341Z,2506.00
2023-04-23T01:35:40.172Z,2536.00
2023-04-23T01:36:40.237Z,2560.00
2023-04-23T01:37:40.226Z,2546.00
2023-04-23T01:38:40.247Z,2565.00
2023-04-23T01:39:40.278Z,2582.00
2023-04-23T01:40:40.292Z,2577.00
2023-04-23T01:41:40.331Z,2576.00
2023-04-23T01:42:40.358Z,2551.00
2023-04-23T01:43:40.358Z,2559.00
2023-04-23T01:44:40.469Z,2547.00
2023-04-23T01:45:40.403Z,2544.00
2023-04-23T01:46:40.476Z,2554.00
2023-04-23T01:47:40.471Z,2518.00
2023-04-23T01:48:40.482Z,2498.00
2023-04-23T01:49:40.489Z,2606.00
2023-04-23T01:50:40.495Z,2763.00
2023-04-23T01:51:40.506Z,2850.00
2023-04-23T01:52:40.649Z,2835.00
2023-04-23T01:53:40.575Z,2767.00
2023-04-23T01:54:40.929Z,2680.00
2023-04-23T01:55:40.617Z,2645.00
2023-04-23T01:56:40.631Z,2622.00
2023-04-23T01:57:40.673Z,2546.00
2023-04-23T01:58:40.667Z,2532.00
2023-04-23T01:59:40.714Z,2521.00
2023-04-23T02:00:40.770Z,2525.00
2023-04-23T02:01:40.791Z,2499.00
2023-04-23T02:02:40.967Z,2508.00
2023-04-23T02:03:40.945Z,2528.00
2023-04-23T02:04:41.176Z,2539.00
2023-04-23T02:05:40.853Z,2565.00
2023-04-23T02:06:40.854Z,2584.00
2023-04-23T02:07:40.898Z,2607.00
2023-04-23T02:08:40.924Z,2623.00
2023-04-23T02:09:40.955Z,2638.00
2023-04-23T02:10:40.949Z,2618.00
2023-04-23T02:11:40.987Z,2612.00
2023-04-23T02:12:41.000Z,2578.00
2023-04-23T02:13:41.032Z,2613.00
2023-04-23T02:14:41.410Z,2581.00
2023-04-23T02:15:41.072Z,2590.00
2023-04-23T02:16:41.095Z,2610.00
2023-04-23T02:17:41.149Z,2625.00
2023-04-23T02:18:41.132Z,2642.00
2023-04-23T02:19:41.160Z,2641.00
2023-04-23T02:20:41.164Z,2647.00
2023-04-23T02:21:41.185Z,2649.00
2023-04-23T02:22:41.225Z,2648.00
2023-04-23T02:23:41.261Z,2654.00
2023-04-23T02:24:41.455Z,2635.00
2023-04-23T02:25:41.279Z,2607.00
2023-04-23T02:26:41.345Z,2629.00
2023-04-23T02:27:41.358Z,2618.00
2023-04-23T02:28:41.374Z,2621.00
2023-04-23T02:29:41.384Z,2619.00
2023-04-23T02:30:41.401Z,2577.00
2023-04-23T02:31:41.485Z,2628.00
2023-04-23T02:32:41.476Z,2620.00
2023-04-23T02:33:41.465Z,2644.00
2023-04-23T02:34:41.833Z,2642.00
2023-04-23T02:35:41.519Z,2679.00
2023-04-23T02:36:41.646Z,2745.00
2023-04-23T02:37:41.646Z,2775.00
2023-04-23T02:38:41.591Z,2757.00
2023-04-23T02:39:41.589Z,2761.00
2023-04-23T02:40:41.618Z,2743.00
2023-04-23T02:41:41.647Z,2723.00
2023-04-23T02:42:43.834Z,2701.00
2023-04-23T02:43:41.707Z,2696.00
2023-04-23T02:44:41.968Z,2676.00
2023-04-23T02:45:41.738Z,2665.00
2023-04-23T02:46:41.774Z,2637.00
2023-04-23T02:47:41.795Z,2609.00
2023-04-23T02:48:41.838Z,2592.00
2023-04-23T02:49:41.816Z,2638.00
2023-04-23T02:50:41.829Z,2648.00
2023-04-23T02:51:41.862Z,2668.00
2023-04-23T02:52:41.898Z,2660.00
2023-04-23T02:53:41.914Z,2638.00
2023-04-23T02:54:42.277Z,2630.00
2023-04-23T02:55:41.956Z,2611.00
2023-04-23T02:56:41.985Z,2590.00
2023-04-23T02:57:42.008Z,2572.00
2023-04-23T02:58:42.289Z,2542.00
2023-04-23T02:59:42.047Z,2567.00
2023-04-23T03:00:42.175Z,2620.00
2023-04-23T03:01:42.092Z,2684.00
2023-04-23T03:02:42.229Z,2770.00
2023-04-23T03:03:42.263Z,2836.00
2023-04-23T03:04:42.293Z,2886.00
2023-04-23T03:05:42.164Z,2959.00
2023-04-23T03:06:42.166Z,2953.00
2023-04-23T03:07:42.199Z,2839.00
2023-04-23T03:08:42.249Z,2732.00
2023-04-23T03:09:42.261Z,2620.00
2023-04-23T03:10:42.270Z,2547.00
2023-04-23T03:11:42.279Z,2525.00
2023-04-23T03:12:42.304Z,2519.00
2023-04-23T03:13:42.331Z,2526.00
2023-04-23T03:14:42.682Z,2536.00
2023-04-23T03:15:42.409Z,2538.00
2023-04-23T03:16:42.447Z,2579.00
2023-04-23T03:17:42.449Z,2611.00
2023-04-23T03:18:42.470Z,2620.00
2023-04-23T03:19:42.489Z,2580.00
2023-04-23T03:20:42.613Z,2600.00
2023-04-23T03:21:42.525Z,2604.00
2023-04-23T03:22:42.574Z,2613.00
2023-04-23T03:23:42.567Z,2644.00
2023-04-23T03:24:42.760Z,2638.00
2023-04-23T03:25:42.618Z,2685.00
2023-04-23T03:26:42.632Z,2676.00
2023-04-23T03:27:42.672Z,2678.00
2023-04-23T03:28:42.689Z,2731.00
2023-04-23T03:29:42.705Z,2746.00
2023-04-23T03:30:42.753Z,2741.00
2023-04-23T03:31:42.742Z,2718.00
2023-04-23T03:32:42.755Z,2713.00
2023-04-23T03:33:42.775Z,2719.00
2023-04-23T03:34:43.021Z,2734.00
2023-04-23T03:35:42.824Z,2737.00
2023-04-23T03:36:42.851Z,2718.00
2023-04-23T03:37:42.918Z,2765.00
2023-04-23T03:38:42.908Z,2780.00
2023-04-23T03:39:42.927Z,2763.00
2023-04-23T03:40:42.936Z,2742.00
2023-04-23T03:41:42.981Z,2734.00
2023-04-23T03:42:43.000Z,2724.00
2023-04-23T03:43:43.118Z,2707.00
2023-04-23T03:44:43.197Z,2714.00
2023-04-23T03:45:43.067Z,2735.00
2023-04-23T03:46:43.081Z,2712.00
2023-04-23T03:47:43.089Z,2752.00
2023-04-23T03:48:43.078Z,2737.00
2023-04-23T03:49:43.096Z,2745.00
2023-04-23T03:50:43.092Z,2748.00
2023-04-23T03:51:43.093Z,2759.00
2023-04-23T03:52:43.105Z,2744.00
2023-04-23T03:53:43.128Z,2733.00
2023-04-23T03:54:43.335Z,2727.00
2023-04-23T03:55:43.118Z,2718.00
2023-04-23T03:56:43.133Z,2704.00
2023-04-23T03:57:43.142Z,2725.00
2023-04-23T03:58:43.157Z,2751.00
2023-04-23T03:59:43.155Z,2764.00
2023-04-23T04:00:43.159Z,2771.00
2023-04-23T04:01:43.161Z,2773.00
2023-04-23T04:02:43.267Z,2737.00
2023-04-23T04:03:43.378Z,2686.00
2023-04-23T04:04:43.473Z,2686.00
2023-04-23T04:05:43.332Z,2657.00
2023-04-23T04:06:43.190Z,2642.00
2023-04-23T04:07:43.219Z,2622.00
2023-04-23T04:08:43.208Z,2628.00
2023-04-23T04:09:43.237Z,2586.00
2023-04-23T04:10:43.216Z,2591.00
2023-04-23T04:11:43.260Z,2590.00
2023-04-23T04:12:43.243Z,2584.00
2023-04-23T04:13:43.253Z,2584.00
2023-04-23T04:14:43.581Z,2599.00
2023-04-23T04:15:43.302Z,2602.00
2023-04-23T04:16:43.303Z,2632.00
2023-04-23T04:17:43.332Z,2629.00
2023-04-23T04:18:43.321Z,2633.00
2023-04-23T04:19:43.381Z,2657.00
2023-04-23T04:20:43.393Z,2657.00
2023-04-23T04:21:43.402Z,2668.00
2023-04-23T04:22:43.439Z,2674.00
2023-04-23T04:23:43.471Z,2686.00
2023-04-23T04:24:43.744Z,2706.00
2023-04-23T04:25:43.512Z,2709.00
2023-04-23T04:26:43.538Z,2686.00
2023-04-23T04:27:43.656Z,2710.00
2023-04-23T04:28:43.609Z,2681.00
2023-04-23T04:29:43.657Z,2702.00
2023-04-23T04:30:43.648Z,2711.00
2023-04-23T04:31:43.711Z,2711.00
2023-04-23T04:32:43.715Z,2724.00
2023-04-23T04:33:43.711Z,2759.00
2023-04-23T04:34:43.945Z,2750.00
2023-04-23T04:35:43.761Z,2754.00
2023-04-23T04:36:43.793Z,2799.00
2023-04-23T04:37:43.871Z,2797.00
2023-04-23T04:38:43.846Z,2780.00
2023-04-23T04:39:43.872Z,2814.00
2023-04-23T04:40:43.887Z,2812.00
2023-04-23T04:41:43.917Z,2774.00
2023-04-23T04:42:43.924Z,2757.00
2023-04-23T04:43:43.939Z,2738.00
2023-04-23T04:44:44.041Z,2740.00
2023-04-23T04:45:43.986Z,2751.00
2023-04-23T04:46:44.105Z,2713.00
2023-04-23T04:47:44.073Z,2710.00
2023-04-23T04:48:44.074Z,2723.00
2023-04-23T04:49:44.188Z,2720.00
2023-04-23T04:50:44.122Z,2690.00
2023-04-23T04:51:44.145Z,2667.00
2023-04-23T04:52:44.167Z,2657.00
2023-04-23T04:53:44.202Z,2629.00
2023-04-23T04:54:44.392Z,2618.00
2023-04-23T04:55:44.227Z,2621.00
2023-04-23T04:56:44.272Z,2635.00
2023-04-23T04:57:44.290Z,2628.00
2023-04-23T04:58:44.312Z,2643.00
2023-04-23T04:59:44.487Z,2667.00
2023-04-23T05:00:44.522Z,2645.00
2023-04-23T05:01:44.377Z,2649.00
2023-04-23T05:02:44.467Z,2698.00
2023-04-23T05:03:44.629Z,2745.00
2023-04-23T05:04:44.637Z,2763.00
2023-04-23T05:05:44.496Z,2772.00
2023-04-23T05:06:44.489Z,2773.00
2023-04-23T05:07:44.514Z,2776.00
2023-04-23T05:08:44.560Z,2773.00
2023-04-23T05:09:45.356Z,2751.00
2023-04-23T05:10:44.598Z,2745.00
2023-04-23T05:11:44.693Z,2701.00
2023-04-23T05:12:44.630Z,2734.00
2023-04-23T05:13:44.685Z,2833.00
2023-04-23T05:14:44.668Z,2899.00
2023-04-23T05:15:44.676Z,2947.00
2023-04-23T05:16:44.744Z,2964.00
2023-04-23T05:17:44.732Z,2906.00
2023-04-23T05:18:44.749Z,2824.00
2023-04-23T05:19:44.771Z,2749.00
2023-04-23T05:20:44.786Z,2706.00
2023-04-23T05:21:44.811Z,2689.00
2023-04-23T05:22:44.813Z,2702.00
2023-04-23T05:23:44.862Z,2722.00
2023-04-23T05:24:44.873Z,2709.00
2023-04-23T05:25:44.879Z,2717.00
2023-04-23T05:26:44.906Z,2736.00
2023-04-23T05:27:44.938Z,2726.00
2023-04-23T05:28:44.950Z,2717.00
2023-04-23T05:29:44.966Z,2747.00
2023-04-23T05:30:45.001Z,2759.00
2023-04-23T05:31:45.053Z,2715.00
2023-04-23T05:32:45.080Z,2675.00
2023-04-23T05:33:49.892Z,2631.00
2023-04-23T05:34:46.044Z,2632.00
2023-04-23T05:35:45.026Z,2635.00
2023-04-23T05:36:45.040Z,2644.00
2023-04-23T05:37:45.019Z,2664.00
2023-04-23T05:38:45.067Z,2707.00
2023-04-23T05:39:45.014Z,2732.00
2023-04-23T05:40:45.003Z,2785.00
2023-04-23T05:41:44.997Z,2871.00
2023-04-23T05:42:44.969Z,2859.00
2023-04-23T05:43:44.983Z,2824.00
2023-04-23T05:44:44.994Z,2779.00
2023-04-23T05:45:44.989Z,2729.00
2023-04-23T05:46:44.940Z,2699.00
2023-04-23T05:47:44.943Z,2685.00
2023-04-23T05:48:44.949Z,2682.00
2023-04-23T05:49:44.937Z,2698.00
2023-04-23T05:50:44.928Z,2698.00
2023-04-23T05:51:46.565Z,2709.00
2023-04-23T05:52:44.936Z,2753.00
2023-04-23T05:53:44.974Z,2808.00
2023-04-23T05:54:44.983Z,2804.00
2023-04-23T05:55:45.097Z,2855.00
2023-04-23T05:56:45.014Z,2805.00
2023-04-23T05:57:45.063Z,2764.00
2023-04-23T05:58:45.061Z,2716.00
2023-04-23T05:59:45.085Z,2703.00
2023-04-23T06:00:45.104Z,2688.00
2023-04-23T06:01:45.121Z,2669.00
2023-04-23T06:02:45.184Z,2689.00
2023-04-23T06:03:45.472Z,2713.00
2023-04-23T06:04:46.286Z,2684.00
2023-04-23T06:05:45.300Z,2692.00
2023-04-23T06:06:45.205Z,2700.00
2023-04-23T06:07:45.230Z,2707.00
2023-04-23T06:08:45.261Z,2714.00
2023-04-23T06:09:45.267Z,2689.00
2023-04-23T06:10:45.274Z,2678.00
2023-04-23T06:11:45.307Z,2671.00
2023-04-23T06:12:45.305Z,2665.00
2023-04-23T06:13:45.319Z,2633.00
2023-04-23T06:14:45.343Z,2620.00
2023-04-23T06:15:45.391Z,2620.00
2023-04-23T06:16:45.383Z,2610.00
2023-04-23T06:17:45.520Z,2604.00
2023-04-23T06:18:45.410Z,2596.00
2023-04-23T06:19:45.427Z,2597.00
2023-04-23T06:20:45.461Z,2570.00
2023-04-23T06:21:45.471Z,2558.00
2023-04-23T06:22:45.486Z,2554.00
2023-04-23T06:23:45.528Z,2554.00
2023-04-23T06:24:45.532Z,2563.00
2023-04-23T06:25:45.548Z,2553.00
2023-04-23T06:26:45.592Z,2549.00
2023-04-23T06:27:45.596Z,2543.00
2023-04-23T06:28:45.616Z,2541.00
2023-04-23T06:29:45.643Z,2533.00
2023-04-23T06:30:45.654Z,2541.00
2023-04-23T06:31:45.703Z,2578.00
2023-04-23T06:32:45.688Z,2600.00
2023-04-23T06:33:45.713Z,2591.00
2023-04-23T06:34:59.663Z,2551.00
2023-04-23T06:35:46.687Z,2552.00
2023-04-23T06:36:45.705Z,2551.00
2023-04-23T06:37:45.663Z,2519.00
2023-04-23T06:38:45.670Z,2490.00
2023-04-23T06:39:45.760Z,2499.00
2023-04-23T06:40:45.652Z,2471.00
2023-04-23T06:41:45.660Z,2491.00
2023-04-23T06:42:45.651Z,2468.00
2023-04-23T06:43:45.651Z,2480.00
2023-04-23T06:44:45.650Z,2458.00
2023-04-23T06:45:45.625Z,2456.00
2023-04-23T06:46:45.664Z,2457.00
2023-04-23T06:47:45.632Z,2443.00
2023-04-23T06:48:45.619Z,2437.00
2023-04-23T06:49:45.613Z,2433.00
2023-04-23T06:50:45.600Z,2423.00
2023-04-23T06:51:45.574Z,2426.00
2023-04-23T06:52:45.571Z,2450.00
2023-04-23T06:53:45.583Z,2469.00
2023-04-23T06:54:45.558Z,2435.00
2023-04-23T06:55:45.561Z,2429.00
2023-04-23T06:56:45.547Z,2431.00
2023-04-23T06:57:45.751Z,2428.00
2023-04-23T06:58:45.553Z,2428.00
2023-04-23T06:59:45.537Z,2434.00
2023-04-23T07:00:45.540Z,2439.00
2023-04-23T07:01:45.526Z,2442.00
2023-04-23T07:02:45.576Z,2409.00
2023-04-23T07:03:45.581Z,2415.00
2023-04-23T07:04:46.110Z,2407.00
2023-04-23T07:05:45.555Z,2389.00
2023-04-23T07:06:45.586Z,2409.00
2023-04-23T07:07:45.607Z,2421.00
2023-04-23T07:08:45.617Z,2377.00
2023-04-23T07:09:45.636Z,2351.00
2023-04-23T07:10:45.630Z,2369.00
2023-04-23T07:11:45.653Z,2351.00
2023-04-23T07:12:45.666Z,2348.00
2023-04-23T07:13:45.677Z,2342.00
2023-04-23T07:14:45.669Z,2329.00
2023-04-23T07:15:45.688Z,2321.00
2023-04-23T07:16:45.694Z,2328.00
2023-04-23T07:17:45.723Z,2324.00
2023-04-23T07:18:45.695Z,2355.00
2023-04-23T07:19:45.716Z,2363.00
2023-04-23T07:20:45.747Z,2361.00
2023-04-23T07:21:45.728Z,2374.00
2023-04-23T07:22:45.746Z,2401.00
2023-04-23T07:23:45.756Z,2354.00
2023-04-23T07:24:45.926Z,2342.00
2023-04-23T07:25:45.756Z,2314.00
2023-04-23T07:26:45.774Z,2263.00
2023-04-23T07:27:45.783Z,2242.00
2023-04-23T07:28:45.795Z,2234.00
2023-04-23T07:29:45.777Z,2199.00
2023-04-23T07:30:45.782Z,2211.00
2023-04-23T07:31:45.814Z,2210.00
2023-04-23T07:32:45.853Z,2164.00
2023-04-23T07:33:45.846Z,2173.00
2023-04-23T07:34:45.792Z,2154.00
2023-04-23T07:35:45.801Z,2153.00
2023-04-23T07:36:45.773Z,2133.00
2023-04-23T07:37:45.792Z,2156.00
2023-04-23T07:38:45.775Z,2125.00
2023-04-23T07:39:45.989Z,2106.00
2023-04-23T07:40:45.771Z,2106.00
2023-04-23T07:41:45.792Z,2065.00
2023-04-23T07:42:45.827Z,2078.00
2023-04-23T07:43:45.861Z,2076.00
2023-04-23T07:44:45.859Z,2060.00
2023-04-23T07:45:45.913Z,2088.00
2023-04-23T07:46:45.909Z,2064.00
2023-04-23T07:47:45.959Z,2060.00
2023-04-23T07:48:46.001Z,2110.00
2023-04-23T07:49:46.042Z,2117.00
2023-04-23T07:50:46.085Z,2096.00
2023-04-23T07:51:46.117Z,2106.00
2023-04-23T07:52:46.183Z,2052.00
2023-04-23T07:53:46.252Z,2088.00
2023-04-23T07:54:46.288Z,2167.00
2023-04-23T07:55:46.363Z,2154.00
2023-04-23T07:56:46.417Z,2126.00
2023-04-23T07:57:46.486Z,2100.00
2023-04-23T07:58:46.558Z,2110.00
2023-04-23T07:59:46.613Z,2167.00
2023-04-23T08:00:46.659Z,2119.00
2023-04-23T08:01:46.732Z,2112.00
2023-04-23T08:02:46.948Z,2124.00
2023-04-23T08:03:47.109Z,2109.00
2023-04-23T08:04:47.078Z,2163.00
2023-04-23T08:05:47.080Z,2190.00
2023-04-23T08:06:47.028Z,2224.00
2023-04-23T08:07:47.075Z,2216.00
2023-04-23T08:08:47.145Z,2197.00
2023-04-23T08:09:47.604Z,2208.00
2023-04-23T08:10:47.272Z,2236.00
2023-04-23T08:11:47.322Z,2298.00
2023-04-23T08:12:47.364Z,2377.00
2023-04-23T08:13:47.444Z,2456.00
2023-04-23T08:14:47.477Z,2507.00
2023-04-23T08:15:47.610Z,2526.00
2023-04-23T08:16:47.593Z,2540.00
2023-04-23T08:17:47.734Z,2575.00
2023-04-23T08:18:58.115Z,2562.00
2023-04-23T08:19:48.703Z,2524.00
2023-04-23T08:20:47.704Z,2513.00
2023-04-23T08:21:47.704Z,2553.00
2023-04-23T08:22:47.684Z,2546.00
2023-04-23T08:23:47.678Z,2553.00
2023-04-23T08:24:47.684Z,2544.00
2023-04-23T08:25:47.664Z,2516.00
2023-04-23T08:26:47.668Z,2518.00
2023-04-23T08:27:47.670Z,2537.00
2023-04-23T08:28:47.655Z,2481.00
2023-04-23T08:29:47.629Z,2495.00
2023-04-23T08:30:47.688Z,2487.00
2023-04-23T08:31:47.806Z,2468.00
2023-04-23T08:32:47.839Z,2487.00
2023-04-23T08:33:47.859Z,2484.00
2023-04-23T08:34:47.886Z,2509.00
2023-04-23T08:35:47.936Z,2520.00
2023-04-23T08:36:48.003Z,2505.00
2023-04-23T08:37:48.044Z,2484.00
2023-04-23T08:38:48.073Z,2496.00
2023-04-23T08:39:48.095Z,2499.00
2023-04-23T08:40:48.152Z,2496.00
2023-04-23T08:41:48.187Z,2471.00
2023-04-23T08:42:48.243Z,2478.00
2023-04-23T08:43:48.370Z,2463.00
2023-04-23T08:44:48.334Z,2476.00
2023-04-23T08:45:48.402Z,2471.00
2023-04-23T08:46:48.513Z,2464.00
2023-04-23T08:47:48.549Z,2458.00
2023-04-23T08:48:48.550Z,2445.00
2023-04-23T08:49:48.600Z,2456.00
2023-04-23T08:50:48.674Z,2447.00
2023-04-23T08:51:48.683Z,2381.00
2023-04-23T08:52:48.731Z,2436.00
2023-04-23T08:53:48.765Z,2403.00
2023-04-23T08:54:48.836Z,2422.00
2023-04-23T08:55:48.885Z,2428.00
2023-04-23T08:56:48.929Z,2398.00
2023-04-23T08:57:49.161Z,2361.00
2023-04-23T08:58:49.038Z,2397.00
2023-04-23T08:59:49.054Z,2360.00
2023-04-23T09:00:49.171Z,2394.00
2023-04-23T09:01:49.178Z,2402.00
2023-04-23T09:02:49.577Z,2381.00
2023-04-23T09:03:49.370Z,2370.00
2023-04-23T09:04:51.340Z,2385.00
2023-04-23T09:05:49.289Z,2392.00
2023-04-23T09:06:49.285Z,2353.00
2023-04-23T09:07:49.297Z,2383.00
2023-04-23T09:08:49.284Z,2404.00
2023-04-23T09:09:49.268Z,2374.00
2023-04-23T09:10:49.254Z,2276.00
2023-04-23T09:11:49.253Z,2321.00
2023-04-23T09:12:49.256Z,2299.00
2023-04-23T09:13:49.239Z,2303.00
2023-04-23T09:14:49.257Z,2295.00
2023-04-23T09:15:49.236Z,2324.00
2023-04-23T09:16:49.266Z,2310.00
2023-04-23T09:17:49.241Z,2268.00
2023-04-23T09:18:49.237Z,2308.00
2023-04-23T09:19:49.224Z,2330.00
2023-04-23T09:20:49.207Z,2309.00
2023-04-23T09:21:49.200Z,2279.00
2023-04-23T09:22:49.209Z,2285.00
2023-04-23T09:23:49.188Z,2229.00
2023-04-23T09:24:49.170Z,2224.00
2023-04-23T09:25:49.171Z,2214.00
2023-04-23T09:26:49.172Z,2225.00
2023-04-23T09:27:49.156Z,2236.00
2023-04-23T09:28:50.155Z,2255.00
2023-04-23T09:29:49.134Z,2260.00
2023-04-23T09:30:49.125Z,2250.00
2023-04-23T09:31:49.138Z,2241.00
2023-04-23T09:32:49.134Z,2224.00
2023-04-23T09:33:49.117Z,2194.00
2023-04-23T09:34:49.107Z,2214.00
2023-04-23T09:35:49.089Z,2202.00
2023-04-23T09:36:49.108Z,2103.00
2023-04-23T09:37:49.534Z,2088.00
2023-04-23T09:38:49.080Z,2157.00
2023-04-23T09:39:49.069Z,2184.00
2023-04-23T09:40:49.068Z,2180.00
2023-04-23T09:41:49.072Z,2166.00
2023-04-23T09:42:49.057Z,2146.00
2023-04-23T09:43:49.048Z,2033.00
2023-04-23T09:44:49.040Z,2038.00
2023-04-23T09:45:49.091Z,2078.00
2023-04-23T09:46:49.037Z,2105.00
2023-04-23T09:47:49.077Z,2049.00
2023-04-23T09:48:49.011Z,2024.00
2023-04-23T09:49:48.992Z,2036.00
2023-04-23T09:50:48.989Z,2107.00
2023-04-23T09:51:48.987Z,2100.00
2023-04-23T09:52:48.975Z,2038.00
2023-04-23T09:53:49.034Z,2042.00
2023-04-23T09:54:49.076Z,2089.00
2023-04-23T09:55:49.164Z,2042.00
2023-04-23T09:56:49.149Z,2036.00
2023-04-23T09:57:49.202Z,2052.00
2023-04-23T09:58:49.232Z,2032.00
2023-04-23T09:59:54.849Z,2052.00
2023-04-23T10:00:50.272Z,2051.00
2023-04-23T10:01:49.365Z,2035.00
2023-04-23T10:02:49.504Z,2053.00
2023-04-23T10:03:49.484Z,2045.00
2023-04-23T10:04:49.445Z,2020.00
2023-04-23T10:06:00.982Z,1994.00
2023-04-23T10:07:02.346Z,1977.00
2023-04-23T10:07:50.219Z,1977.00
2023-04-23T10:08:49.230Z,1994.00
2023-04-23T10:09:49.241Z,1999.00
2023-04-23T10:11:49.214Z,1868.00
2023-04-23T10:12:54.432Z,1924.00
2023-04-23T10:13:50.193Z,1920.00
2023-04-23T10:14:49.264Z,1936.00
2023-04-23T10:15:49.181Z,1831.00
2023-04-23T10:16:49.492Z,1716.00
2023-04-23T10:17:49.160Z,1791.00
2023-04-23T10:18:49.155Z,1806.00
2023-04-23T10:19:49.130Z,1851.00
2023-04-23T10:20:49.127Z,1880.00
2023-04-23T10:21:56.182Z,1929.00
2023-04-23T10:22:50.137Z,1930.00
2023-04-23T10:23:49.100Z,1931.00
2023-04-23T10:24:49.628Z,1895.00
2023-04-23T10:25:49.103Z,1737.00
2023-04-23T10:26:49.095Z,1802.00
2023-04-23T10:27:53.151Z,1851.00
2023-04-23T10:28:50.082Z,1701.00
2023-04-23T10:29:49.074Z,1605.00
2023-04-23T10:30:49.068Z,1671.00
2023-04-23T10:31:49.043Z,1770.00
2023-04-23T10:32:49.176Z,1764.00
2023-04-23T10:33:58.457Z,1779.00
2023-04-23T10:34:50.024Z,1757.00
2023-04-23T10:35:49.014Z,1706.00
2023-04-23T10:36:49.024Z,1658.00
2023-04-23T10:37:49.040Z,1767.00
2023-04-23T10:38:57.898Z,1802.00
2023-04-23T10:39:50.168Z,1770.00
2023-04-23T10:40:48.990Z,1780.00
2023-04-23T10:41:48.991Z,1646.00
2023-04-23T10:42:48.966Z,1699.00
2023-04-23T10:43:48.996Z,1764.00
2023-04-23T10:44:57.868Z,1714.00
2023-04-23T10:45:49.953Z,1715.00
2023-04-23T10:46:48.961Z,1635.00
2023-04-23T10:47:49.143Z,1633.00
2023-04-23T10:48:48.933Z,1700.00
2023-04-23T10:49:48.936Z,1673.00
2023-04-23T10:51:06.952Z,1592.00
2023-04-23T10:52:48.911Z,1557.00
2023-04-23T10:53:48.903Z,1598.00
2023-04-23T10:54:48.881Z,1613.00
2023-04-23T10:55:48.874Z,1363.00
2023-04-23T10:56:48.892Z,1422.00
2023-04-23T10:57:48.885Z,1407.00
2023-04-23T10:58:48.875Z,1233.00
2023-04-23T10:59:48.861Z,1431.00
2023-04-23T11:00:48.856Z,1466.00
2023-04-23T11:01:48.893Z,1262.00
2023-04-23T11:02:48.992Z,1165.00
2023-04-23T11:03:49.009Z,1274.00
2023-04-23T11:04:48.944Z,1335.00
2023-04-23T11:05:48.817Z,1266.00
2023-04-23T11:06:48.807Z,1178.00
2023-04-23T11:07:48.829Z,1169.00
2023-04-23T11:08:49.531Z,993.00
2023-04-23T11:09:48.788Z,1118.00
2023-04-23T11:10:48.788Z,1021.00
2023-04-23T11:11:48.772Z,1088.00
2023-04-23T11:12:48.759Z,843.00
2023-04-23T11:13:48.748Z,684.00
2023-04-23T11:14:48.758Z,751.00
2023-04-23T11:15:48.744Z,953.00
2023-04-23T11:17:48.937Z,827.00
2023-04-23T11:18:48.869Z,770.00
2023-04-23T11:19:48.922Z,806.00
2023-04-23T11:20:48.970Z,730.00
2023-04-23T11:21:49.011Z,688.00
2023-04-23T11:22:49.057Z,756.00
2023-04-23T11:23:49.114Z,655.00
2023-04-23T11:24:50.982Z,660.00
2023-04-23T11:25:49.179Z,627.00
2023-04-23T11:26:49.207Z,611.00
2023-04-23T11:27:49.264Z,603.00
2023-04-23T11:28:49.298Z,584.00
2023-04-23T11:29:49.327Z,609.00
2023-04-23T11:30:49.381Z,576.00
2023-04-23T11:32:01.390Z,570.00
2023-04-23T11:32:50.560Z,570.00
2023-04-23T11:33:49.423Z,575.00
2023-04-23T11:34:49.411Z,572.00
2023-04-23T11:35:49.380Z,611.00
2023-04-23T11:36:49.393Z,664.00
2023-04-23T11:37:49.426Z,633.00
2023-04-23T11:38:49.366Z,619.00
2023-04-23T11:39:49.387Z,672.00
2023-04-23T11:40:49.346Z,620.00
2023-04-23T11:41:49.368Z,551.00
2023-04-23T11:42:49.350Z,556.00
2023-04-23T11:43:49.323Z,537.00
2023-04-23T11:44:49.368Z,554.00
2023-04-23T11:45:49.445Z,551.00
2023-04-23T11:46:49.617Z,588.00
2023-04-23T11:47:49.554Z,599.00
2023-04-23T11:48:49.597Z,557.00
2023-04-23T11:49:49.590Z,536.00
2023-04-23T11:50:49.633Z,527.00
2023-04-23T11:51:49.695Z,500.00
2023-04-23T11:52:49.744Z,504.00
2023-04-23T11:53:49.798Z,531.00
2023-04-23T11:54:49.854Z,512.00
2023-04-23T11:55:49.884Z,524.00
2023-04-23T11:56:49.951Z,510.00
2023-04-23T11:57:50.005Z,498.00
2023-04-23T11:58:50.046Z,512.00
2023-04-23T11:59:50.083Z,537.00
2023-04-23T12:00:50.131Z,550.00
2023-04-23T12:01:50.174Z,533.00
2023-04-23T12:02:50.307Z,536.00
2023-04-23T12:03:50.426Z,520.00
2023-04-23T12:04:50.361Z,518.00
2023-04-23T12:05:50.357Z,524.00
2023-04-23T12:06:50.412Z,502.00
2023-04-23T12:07:50.453Z,502.00
2023-04-23T12:08:50.521Z,499.00
2023-04-23T12:09:50.574Z,515.00
2023-04-23T12:10:50.638Z,532.00